Time;durP1;ratioP1;P1;durP2;ratioP2;P2;SDS_P1;SDS_P2;PMS_P1;PMS_P2;Temp;Humidity;BMP_temperature;BMP_pressure;BME280_temperature;BME280_humidity;BME280_pressure;Samples;Min_cycle;Max_cycle;Signal;HPM_P1;HPM_P2
2023/01/04 00:00:12;;;;;;;3.35;1.73;;;;;;;;;;5027602;28;20027;-77
2023/01/04 00:02:38;;;;;;;2.42;1.55;;;;;;;;;;5033876;28;20502;-77
2023/01/04 00:05:04;;;;;;;2.15;1.58;;;;;;;;;;5030052;28;20029;-77
2023/01/04 00:07:30;;;;;;;5.07;1.60;;;;;;;;;;5029742;28;20590;-78
2023/01/04 00:09:56;;;;;;;1.65;1.40;;;;;;;;;;5024869;28;21478;-77
2023/01/04 00:12:22;;;;;;;2.25;1.55;;;;;;;;;;5027585;28;20071;-76
2023/01/04 00:14:48;;;;;;;1.65;1.23;;;;;;;;;;5025910;28;20477;-77
2023/01/04 00:17:14;;;;;;;2.67;1.63;;;;;;;;;;5026611;28;20049;-77
2023/01/04 00:19:40;;;;;;;2.28;1.60;;;;;;;;;;5027740;28;20423;-77
2023/01/04 00:22:06;;;;;;;2.13;1.27;;;;;;;;;;5024760;28;20056;-77
2023/01/04 00:24:32;;;;;;;4.38;1.50;;;;;;;;;;5027408;28;20040;-77
2023/01/04 00:26:58;;;;;;;2.53;1.52;;;;;;;;;;5028489;28;20029;-77
2023/01/04 00:29:24;;;;;;;4.47;1.35;;;;;;;;;;5028261;28;20034;-77
2023/01/04 00:31:50;;;;;;;4.93;1.75;;;;;;;;;;5029165;28;20033;-77
2023/01/04 00:34:17;;;;;;;2.10;1.50;;;;;;;;;;5029940;28;20041;-74
2023/01/04 00:36:43;;;;;;;1.60;1.30;;;;;;;;;;5028557;28;20057;-77
2023/01/04 00:39:13;;;;;;;2.60;1.50;;;;;;;;;;5027631;28;20024;-76
2023/01/04 00:41:52;;;;;;;1.38;1.27;;;;;;;;;;5027179;28;20476;-77
2023/01/04 00:44:20;;;;;;;4.45;1.50;;;;;;;;;;5025915;28;20025;-78
2023/01/04 00:46:46;;;;;;;3.47;1.60;;;;;;;;;;5026202;28;20532;-77
2023/01/04 00:49:12;;;;;;;2.35;1.25;;;;;;;;;;5029114;28;20075;-76
2023/01/04 00:51:41;;;;;;;1.98;1.50;;;;;;;;;;5025427;28;20184;-76
2023/01/04 00:54:09;;;;;;;2.03;1.27;;;;;;;;;;5032394;28;20076;-77
2023/01/04 00:56:35;;;;;;;1.85;1.40;;;;;;;;;;5025909;28;20056;-77
2023/01/04 00:59:02;;;;;;;2.00;1.30;;;;;;;;;;5029826;28;20167;-77
2023/01/04 01:01:29;;;;;;;2.92;1.52;;;;;;;;;;5026590;28;20476;-77
2023/01/04 01:03:56;;;;;;;3.63;1.77;;;;;;;;;;5027629;28;20376;-77
2023/01/04 01:06:23;;;;;;;1.65;1.17;;;;;;;;;;5027219;28;20029;-77
2023/01/04 01:08:49;;;;;;;2.78;1.50;;;;;;;;;;5029191;28;20376;-77
2023/01/04 01:11:15;;;;;;;1.95;1.27;;;;;;;;;;5031048;28;20084;-76
2023/01/04 01:13:41;;;;;;;1.23;1.10;;;;;;;;;;5028031;28;20419;-76
2023/01/04 01:16:09;;;;;;;1.75;1.30;;;;;;;;;;5023672;28;20060;-77
2023/01/04 01:18:36;;;;;;;2.50;1.55;;;;;;;;;;5026891;28;20476;-77
2023/01/04 01:21:05;;;;;;;3.80;0.98;;;;;;;;;;5028208;28;20026;-77
2023/01/04 01:23:31;;;;;;;2.15;1.33;;;;;;;;;;5021212;28;20084;-76
2023/01/04 01:26:01;;;;;;;1.95;1.27;;;;;;;;;;5022315;28;20047;-77
2023/01/04 01:28:30;;;;;;;2.15;1.33;;;;;;;;;;5027261;28;20539;-77
2023/01/04 01:30:58;;;;;;;1.55;1.15;;;;;;;;;;5025703;28;20057;-74
2023/01/04 01:33:24;;;;;;;1.73;1.20;;;;;;;;;;5025781;28;20112;-77
2023/01/04 01:35:50;;;;;;;1.25;1.10;;;;;;;;;;5016479;28;20057;-77
2023/01/04 01:38:16;;;;;;;1.58;1.20;;;;;;;;;;5025547;28;20036;-77
2023/01/04 01:40:43;;;;;;;1.67;1.20;;;;;;;;;;5027140;28;20495;-77
2023/01/04 01:43:16;;;;;;;3.03;1.30;;;;;;;;;;5024645;28;20052;-77
2023/01/04 01:45:42;;;;;;;1.73;1.20;;;;;;;;;;5027192;28;20766;-77
2023/01/04 01:48:13;;;;;;;1.48;1.30;;;;;;;;;;5027521;28;20633;-77
2023/01/04 01:50:44;;;;;;;2.20;1.35;;;;;;;;;;5027581;28;20075;-77
2023/01/04 01:53:10;;;;;;;2.20;1.83;;;;;;;;;;5023063;28;20037;-77
2023/01/04 01:55:38;;;;;;;4.50;1.40;;;;;;;;;;5025568;28;20440;-77
2023/01/04 01:58:05;;;;;;;1.20;1.10;;;;;;;;;;5028712;28;20032;-77
2023/01/04 02:00:31;;;;;;;2.25;1.33;;;;;;;;;;5027988;28;20154;-77
2023/01/04 02:03:10;;;;;;;1.80;1.20;;;;;;;;;;5026884;28;20136;-77
2023/01/04 02:05:36;;;;;;;2.65;1.00;;;;;;;;;;5026388;28;20132;-77
2023/01/04 02:08:05;;;;;;;1.88;1.35;;;;;;;;;;5023912;28;20022;-76
2023/01/04 02:10:32;;;;;;;4.00;1.40;;;;;;;;;;5025036;28;20040;-76
2023/01/04 02:12:58;;;;;;;1.95;1.10;;;;;;;;;;5028913;28;20338;-76
2023/01/04 02:15:27;;;;;;;1.65;1.15;;;;;;;;;;5026192;28;20033;-76
2023/01/04 02:17:56;;;;;;;1.30;1.10;;;;;;;;;;5026865;28;20722;-76
2023/01/04 02:20:26;;;;;;;1.10;1.00;;;;;;;;;;5025260;28;20039;-77
2023/01/04 02:23:07;;;;;;;1.10;1.00;;;;;;;;;;5026504;28;20504;-76
2023/01/04 02:25:55;;;;;;;2.30;1.05;;;;;;;;;;5023242;28;20029;-77
2023/01/04 02:28:40;;;;;;;0.95;0.85;;;;;;;;;;5021447;28;20080;-76
2023/01/04 02:31:24;;;;;;;1.00;0.90;;;;;;;;;;5024439;28;20033;-77
2023/01/04 02:33:50;;;;;;;1.00;0.90;;;;;;;;;;5026828;28;20025;-77
2023/01/04 02:36:23;;;;;;;1.25;1.15;;;;;;;;;;5025042;28;20070;-76
2023/01/04 02:38:49;;;;;;;1.27;1.02;;;;;;;;;;5025954;28;20034;-77
2023/01/04 02:41:24;;;;;;;1.33;0.98;;;;;;;;;;5020756;28;20033;-77
2023/01/04 02:46:46;;;;;;;0.82;0.80;;;;;;;;;;5025956;28;20175;-77
2023/01/04 02:51:56;;;;;;;2.72;1.10;;;;;;;;;;5023959;28;20041;-77
2023/01/04 02:54:26;;;;;;;2.10;1.38;;;;;;;;;;5025378;28;20512;-77
2023/01/04 02:56:51;;;;;;;1.92;1.30;;;;;;;;;;5027306;28;20036;-77
2023/01/04 02:59:27;;;;;;;0.98;0.93;;;;;;;;;;5024736;28;20037;-77
2023/01/04 03:07:39;;;;;;;1.75;1.23;;;;;;;;;;5030192;28;20092;-77
2023/01/04 03:10:08;;;;;;;1.25;0.95;;;;;;;;;;5023561;28;20104;-77
2023/01/04 03:12:37;;;;;;;2.65;1.08;;;;;;;;;;5023718;28;20030;-77
2023/01/04 03:15:09;;;;;;;1.67;1.13;;;;;;;;;;5030697;28;20633;-77
2023/01/04 03:17:41;;;;;;;1.55;1.20;;;;;;;;;;5027066;28;20025;-77
2023/01/04 03:20:08;;;;;;;2.85;1.20;;;;;;;;;;5026487;28;20030;-77
2023/01/04 03:37:04;;;;;;;1.65;1.33;;;;;;;;;;5029624;28;20131;-77
2023/01/04 03:48:32;;;;;;;1.00;0.90;;;;;;;;;;5025176;28;20053;-77
2023/01/04 03:51:07;;;;;;;1.13;1.02;;;;;;;;;;5026584;28;20094;-77
2023/01/04 03:53:35;;;;;;;3.15;0.80;;;;;;;;;;5029529;28;20029;-77
2023/01/04 03:56:02;;;;;;;1.27;0.93;;;;;;;;;;5029224;28;20030;-77
2023/01/04 03:58:28;;;;;;;1.33;0.90;;;;;;;;;;5033794;28;20033;-77
2023/01/04 04:01:02;;;;;;;1.10;0.90;;;;;;;;;;5029419;28;20033;-77
2023/01/04 04:08:58;;;;;;;1.63;1.00;;;;;;;;;;5026623;28;20044;-77
2023/01/04 04:11:30;;;;;;;0.90;0.90;;;;;;;;;;5032131;28;20025;-77
2023/01/04 04:13:56;;;;;;;2.45;0.90;;;;;;;;;;5028447;28;20030;-77
2023/01/04 04:16:25;;;;;;;1.25;0.90;;;;;;;;;;5026115;28;20147;-77
2023/01/04 04:18:51;;;;;;;0.80;0.80;;;;;;;;;;5026233;28;20254;-77
2023/01/04 04:21:17;;;;;;;1.20;0.88;;;;;;;;;;5026213;28;20029;-77
2023/01/04 04:23:43;;;;;;;1.73;1.10;;;;;;;;;;5026281;28;20026;-77
2023/01/04 04:26:09;;;;;;;1.90;1.00;;;;;;;;;;5023477;28;20090;-77
2023/01/04 04:28:35;;;;;;;2.13;0.75;;;;;;;;;;5030891;28;20059;-77
2023/01/04 04:31:01;;;;;;;1.13;0.88;;;;;;;;;;5029869;28;20091;-77
2023/01/04 04:33:27;;;;;;;1.40;1.00;;;;;;;;;;5028343;28;20116;-76
2023/01/04 04:35:54;;;;;;;1.35;0.90;;;;;;;;;;5025718;28;20125;-76
2023/01/04 04:38:21;;;;;;;1.20;1.10;;;;;;;;;;5029673;28;20026;-76
2023/01/04 04:43:32;;;;;;;2.03;1.08;;;;;;;;;;5027947;28;20093;-75
2023/01/04 04:45:59;;;;;;;1.40;1.00;;;;;;;;;;5025084;28;20064;-77
2023/01/04 04:48:25;;;;;;;0.98;0.80;;;;;;;;;;5027483;28;20033;-76
2023/01/04 04:50:51;;;;;;;0.77;0.63;;;;;;;;;;5025252;28;20506;-77
2023/01/04 04:53:17;;;;;;;2.10;0.90;;;;;;;;;;5025322;28;20036;-77
2023/01/04 04:55:43;;;;;;;1.23;0.90;;;;;;;;;;5030253;28;20037;-77
2023/01/04 04:58:09;;;;;;;0.90;0.70;;;;;;;;;;5034691;28;20491;-77
2023/01/04 05:00:35;;;;;;;1.10;0.90;;;;;;;;;;5021433;28;20353;-77
2023/01/04 05:03:01;;;;;;;1.40;1.10;;;;;;;;;;5025857;28;20192;-78
2023/01/04 05:05:28;;;;;;;1.10;0.90;;;;;;;;;;5026078;28;20030;-77
2023/01/04 05:08:09;;;;;;;0.98;0.80;;;;;;;;;;5024474;28;20040;-77
2023/01/04 05:10:36;;;;;;;1.08;0.80;;;;;;;;;;5027165;28;20095;-76
2023/01/04 05:13:04;;;;;;;0.70;0.70;;;;;;;;;;5022838;28;20030;-77
2023/01/04 05:15:33;;;;;;;1.48;1.10;;;;;;;;;;5027117;28;20029;-77
2023/01/04 05:17:59;;;;;;;1.23;1.02;;;;;;;;;;5023214;28;20163;-77
2023/01/04 05:20:25;;;;;;;2.50;1.17;;;;;;;;;;5025570;28;20044;-77
2023/01/04 05:22:51;;;;;;;1.08;0.98;;;;;;;;;;5028406;28;20036;-77
2023/01/04 05:25:17;;;;;;;0.82;0.82;;;;;;;;;;5025036;28;20447;-73
2023/01/04 05:27:43;;;;;;;1.45;1.00;;;;;;;;;;5024364;28;20322;-74
2023/01/04 05:32:55;;;;;;;0.82;0.82;;;;;;;;;;5023392;28;20037;-74
2023/01/04 05:35:21;;;;;;;0.95;0.80;;;;;;;;;;5031426;28;20080;-74
2023/01/04 05:37:47;;;;;;;0.63;0.63;;;;;;;;;;5021844;28;20033;-76
2023/01/04 05:40:13;;;;;;;3.30;1.00;;;;;;;;;;5024246;28;20044;-74
2023/01/04 05:42:39;;;;;;;6.93;1.73;;;;;;;;;;5024006;28;20133;-71
2023/01/04 05:45:05;;;;;;;1.38;0.98;;;;;;;;;;5032026;28;20072;-71
2023/01/04 05:47:32;;;;;;;1.05;0.90;;;;;;;;;;5039370;28;20037;-71
2023/01/04 05:49:58;;;;;;;1.10;1.00;;;;;;;;;;5024795;28;20489;-74
2023/01/04 05:52:24;;;;;;;2.03;1.00;;;;;;;;;;5030160;28;20017;-74
2023/01/04 05:54:50;;;;;;;1.60;1.20;;;;;;;;;;5027135;28;20033;-75
2023/01/04 05:57:16;;;;;;;0.80;0.60;;;;;;;;;;5029032;28;20432;-74
2023/01/04 05:59:42;;;;;;;2.03;1.00;;;;;;;;;;5026013;28;20064;-74
2023/01/04 06:02:13;;;;;;;3.13;0.90;;;;;;;;;;5031807;28;20021;-73
2023/01/04 06:04:39;;;;;;;1.10;1.02;;;;;;;;;;5027363;28;20149;-72
2023/01/04 06:07:04;;;;;;;2.75;1.02;;;;;;;;;;5036204;28;20041;-73
2023/01/04 06:09:30;;;;;;;0.95;0.80;;;;;;;;;;5027006;28;20034;-73
2023/01/04 06:11:56;;;;;;;0.68;0.68;;;;;;;;;;5026787;28;20065;-73
2023/01/04 06:14:22;;;;;;;0.70;0.70;;;;;;;;;;5026592;28;20207;-74
2023/01/04 06:16:48;;;;;;;0.70;0.70;;;;;;;;;;5025719;28;20643;-73
2023/01/04 06:19:14;;;;;;;1.35;0.85;;;;;;;;;;5030620;28;20053;-75
2023/01/04 06:21:40;;;;;;;0.70;0.70;;;;;;;;;;5027303;28;20033;-74
2023/01/04 06:24:06;;;;;;;1.17;0.77;;;;;;;;;;5023686;28;20437;-73
2023/01/04 06:26:32;;;;;;;1.25;1.10;;;;;;;;;;5023443;28;20021;-73
2023/01/04 06:28:58;;;;;;;0.75;0.70;;;;;;;;;;5027876;28;20047;-74
2023/01/04 06:31:24;;;;;;;1.52;0.77;;;;;;;;;;5026126;28;20037;-73
2023/01/04 06:33:50;;;;;;;0.70;0.70;;;;;;;;;;5026454;28;20124;-73
2023/01/04 06:36:16;;;;;;;0.90;0.85;;;;;;;;;;5025864;28;20033;-74
2023/01/04 06:38:45;;;;;;;1.15;0.70;;;;;;;;;;5026758;28;20032;-72
2023/01/04 06:41:11;;;;;;;1.48;1.23;;;;;;;;;;5026399;28;20033;-73
2023/01/04 06:43:37;;;;;;;1.65;1.00;;;;;;;;;;5029869;28;20446;-72
2023/01/04 06:46:03;;;;;;;1.10;0.68;;;;;;;;;;5026478;28;20029;-73
2023/01/04 06:48:29;;;;;;;1.33;0.80;;;;;;;;;;5023140;28;20021;-73
2023/01/04 06:50:55;;;;;;;1.23;0.75;;;;;;;;;;5025155;28;20392;-73
2023/01/04 06:53:21;;;;;;;1.08;0.73;;;;;;;;;;5032385;28;20436;-72
2023/01/04 06:55:47;;;;;;;1.25;0.90;;;;;;;;;;5028118;28;20571;-72
2023/01/04 06:58:13;;;;;;;2.20;0.90;;;;;;;;;;5028292;28;20552;-74
2023/01/04 07:00:39;;;;;;;0.60;0.60;;;;;;;;;;5027359;28;20083;-74
2023/01/04 07:03:05;;;;;;;3.85;0.65;;;;;;;;;;5024023;28;20030;-74
2023/01/04 07:05:41;;;;;;;;;;;;;;;;;;;;;
2023/01/04 07:08:07;;;;;;;1.63;1.00;;;;;;;;;;5020047;28;20042;-73
2023/01/04 07:10:33;;;;;;;1.17;0.80;;;;;;;;;;5036340;28;20013;-73
2023/01/04 07:12:59;;;;;;;0.70;0.70;;;;;;;;;;5027678;28;20017;-72
2023/01/04 07:15:28;;;;;;;0.65;0.60;;;;;;;;;;5026012;28;20026;-72
2023/01/04 07:17:54;;;;;;;0.85;0.75;;;;;;;;;;5018159;28;20139;-73
2023/01/04 07:20:20;;;;;;;2.22;1.00;;;;;;;;;;5021856;28;20048;-72
2023/01/04 07:22:46;;;;;;;1.80;0.70;;;;;;;;;;5033234;28;20029;-73
2023/01/04 07:25:12;;;;;;;1.20;0.95;;;;;;;;;;5025937;28;20491;-72
2023/01/04 07:27:38;;;;;;;2.63;1.15;;;;;;;;;;5041234;28;20026;-73
2023/01/04 07:30:04;;;;;;;1.75;0.80;;;;;;;;;;5027506;28;20480;-74
2023/01/04 07:32:45;;;;;;;0.70;0.70;;;;;;;;;;5021331;28;20029;-74
2023/01/04 07:35:11;;;;;;;1.20;0.80;;;;;;;;;;5031365;28;20037;-73
2023/01/04 07:37:37;;;;;;;2.67;1.10;;;;;;;;;;5041391;28;20026;-73
2023/01/04 07:40:03;;;;;;;2.13;0.70;;;;;;;;;;5027845;28;20045;-72
2023/01/04 07:42:29;;;;;;;2.95;1.00;;;;;;;;;;5030449;28;20842;-73
2023/01/04 07:44:55;;;;;;;0.85;0.60;;;;;;;;;;5028591;28;20034;-73
2023/01/04 07:47:21;;;;;;;0.85;0.75;;;;;;;;;;5027649;28;20417;-73
2023/01/04 07:49:48;;;;;;;2.13;0.80;;;;;;;;;;5027598;28;20033;-73
2023/01/04 07:52:14;;;;;;;0.90;0.80;;;;;;;;;;5029268;28;20026;-72
2023/01/04 07:54:40;;;;;;;0.80;0.80;;;;;;;;;;5029454;28;20436;-72
2023/01/04 07:57:06;;;;;;;0.63;0.63;;;;;;;;;;5035722;28;20392;-72
2023/01/04 07:59:32;;;;;;;0.55;0.55;;;;;;;;;;5043515;28;20051;-72
2023/01/04 08:01:58;;;;;;;1.38;0.80;;;;;;;;;;5033035;28;20389;-73
2023/01/04 08:04:24;;;;;;;0.50;0.50;;;;;;;;;;5034571;28;20029;-72
2023/01/04 08:06:50;;;;;;;1.05;0.80;;;;;;;;;;5034106;28;20037;-73
2023/01/04 08:09:16;;;;;;;0.68;0.63;;;;;;;;;;5024514;28;20397;-72
2023/01/04 08:11:43;;;;;;;1.17;0.70;;;;;;;;;;5036526;28;20051;-73
2023/01/04 08:14:09;;;;;;;1.77;0.60;;;;;;;;;;5031263;28;20492;-72
2023/01/04 08:16:36;;;;;;;0.70;0.70;;;;;;;;;;5029921;28;20148;-72
2023/01/04 08:19:04;;;;;;;0.57;0.52;;;;;;;;;;5038684;28;20025;-72
2023/01/04 08:21:31;;;;;;;0.85;0.82;;;;;;;;;;5036489;28;20026;-72
2023/01/04 08:23:57;;;;;;;0.77;0.70;;;;;;;;;;5031952;28;20077;-73
2023/01/04 08:26:23;;;;;;;1.90;0.73;;;;;;;;;;5030852;28;20442;-72
2023/01/04 08:28:50;;;;;;;0.80;0.80;;;;;;;;;;5032033;28;20034;-73
2023/01/04 08:31:20;;;;;;;0.63;0.60;;;;;;;;;;5028691;28;20029;-74
2023/01/04 08:33:46;;;;;;;0.77;0.77;;;;;;;;;;5031592;28;20032;-75
2023/01/04 08:36:18;;;;;;;1.58;1.23;;;;;;;;;;5040390;28;20049;-75
2023/01/04 08:38:44;;;;;;;1.95;0.80;;;;;;;;;;5029727;28;20036;-73
2023/01/04 08:41:10;;;;;;;1.10;0.70;;;;;;;;;;5028898;28;20026;-76
2023/01/04 08:43:36;;;;;;;1.38;0.68;;;;;;;;;;5032004;28;20557;-75
2023/01/04 08:46:08;;;;;;;0.80;0.68;;;;;;;;;;5026174;28;20064;-73
2023/01/04 08:48:34;;;;;;;0.80;0.70;;;;;;;;;;5031274;28;20030;-73
2023/01/04 08:51:01;;;;;;;1.02;0.60;;;;;;;;;;5030281;28;20107;-73
2023/01/04 08:53:27;;;;;;;0.45;0.45;;;;;;;;;;5027699;28;20513;-74
2023/01/04 08:55:53;;;;;;;1.60;0.60;;;;;;;;;;5023288;28;20025;-74
2023/01/04 08:58:32;;;;;;;0.45;0.45;;;;;;;;;;5025946;28;20037;-74
2023/01/04 09:01:01;;;;;;;3.40;0.68;;;;;;;;;;5026596;28;20511;-74
2023/01/04 09:03:28;;;;;;;0.75;0.65;;;;;;;;;;5027164;28;20127;-73
2023/01/04 09:05:54;;;;;;;0.50;0.50;;;;;;;;;;5029381;28;20029;-73
2023/01/04 09:08:20;;;;;;;3.22;0.80;;;;;;;;;;5030360;28;20033;-73
2023/01/04 09:10:46;;;;;;;1.27;0.80;;;;;;;;;;5029068;28;20037;-73
2023/01/04 09:13:12;;;;;;;1.67;0.50;;;;;;;;;;5035004;28;20034;-73
2023/01/04 09:15:38;;;;;;;0.60;0.60;;;;;;;;;;5032507;28;20021;-74
2023/01/04 09:18:06;;;;;;;0.75;0.75;;;;;;;;;;5025156;28;20554;-73
2023/01/04 09:20:32;;;;;;;1.33;0.75;;;;;;;;;;5026507;28;20091;-74
2023/01/04 09:22:58;;;;;;;1.48;0.80;;;;;;;;;;5026829;28;20484;-73
2023/01/04 09:25:24;;;;;;;0.65;0.50;;;;;;;;;;5024425;28;20032;-74
2023/01/04 09:27:50;;;;;;;1.55;0.57;;;;;;;;;;5033575;28;20021;-74
2023/01/04 09:30:16;;;;;;;1.05;0.65;;;;;;;;;;5023298;28;20384;-75
2023/01/04 09:32:42;;;;;;;1.02;0.93;;;;;;;;;;5025426;28;20041;-78
2023/01/04 09:35:08;;;;;;;0.80;0.57;;;;;;;;;;5027013;28;20046;-77
2023/01/04 09:37:34;;;;;;;1.83;0.60;;;;;;;;;;5029358;28;20044;-77
2023/01/04 09:40:00;;;;;;;0.60;0.60;;;;;;;;;;5028277;28;20037;-76
2023/01/04 09:42:35;;;;;;;0.60;0.60;;;;;;;;;;5026108;28;20041;-77
2023/01/04 09:45:08;;;;;;;0.60;0.60;;;;;;;;;;5027307;28;20039;-77
2023/01/04 09:47:34;;;;;;;1.95;0.70;;;;;;;;;;5025431;28;20074;-73
2023/01/04 09:50:11;;;;;;;0.70;0.70;;;;;;;;;;5023495;28;20025;-73
2023/01/04 09:52:41;;;;;;;0.80;0.65;;;;;;;;;;5020041;28;20100;-73
2023/01/04 09:55:25;;;;;;;0.63;0.63;;;;;;;;;;5024837;28;20106;-73
2023/01/04 09:57:56;;;;;;;2.13;0.65;;;;;;;;;;5018437;28;20063;-74
2023/01/04 10:00:27;;;;;;;0.60;0.60;;;;;;;;;;5020827;28;20029;-73
2023/01/04 10:02:58;;;;;;;1.83;0.77;;;;;;;;;;5024664;28;20048;-74
2023/01/04 10:05:26;;;;;;;0.90;0.60;;;;;;;;;;5021557;28;20039;-74
2023/01/04 10:07:53;;;;;;;0.63;0.63;;;;;;;;;;5023019;28;20033;-72
2023/01/04 10:10:22;;;;;;;0.52;0.52;;;;;;;;;;5022758;28;20029;-73
2023/01/04 10:13:02;;;;;;;0.68;0.68;;;;;;;;;;5021693;28;20527;-73
2023/01/04 10:15:40;;;;;;;0.60;0.40;;;;;;;;;;5019506;28;20028;-73
2023/01/04 10:18:33;;;;;;;1.45;0.70;;;;;;;;;;5022228;28;20037;-74
2023/01/04 10:21:06;;;;;;;1.08;0.60;;;;;;;;;;5023174;28;20036;-73
2023/01/04 10:23:50;;;;;;;0.60;0.52;;;;;;;;;;5021958;28;20048;-72
2023/01/04 10:26:20;;;;;;;0.60;0.60;;;;;;;;;;5024256;28;20034;-72
2023/01/04 10:29:05;;;;;;;0.93;0.60;;;;;;;;;;5033472;28;20029;-73
2023/01/04 10:31:31;;;;;;;0.63;0.40;;;;;;;;;;5022734;28;20689;-73
2023/01/04 10:34:03;;;;;;;1.20;0.70;;;;;;;;;;5028390;28;20026;-73
2023/01/04 10:36:33;;;;;;;0.65;0.57;;;;;;;;;;5019390;28;20028;-75
2023/01/04 10:39:03;;;;;;;0.60;0.60;;;;;;;;;;5024251;28;20028;-74
2023/01/04 10:41:35;;;;;;;0.65;0.65;;;;;;;;;;5028049;28;20043;-72
2023/01/04 10:44:04;;;;;;;1.10;0.70;;;;;;;;;;5024635;28;20180;-72
2023/01/04 10:46:54;;;;;;;0.40;0.40;;;;;;;;;;5030560;28;20033;-73
2023/01/04 10:49:29;;;;;;;0.82;0.50;;;;;;;;;;5002862;28;20068;-72
2023/01/04 10:51:59;;;;;;;2.25;0.70;;;;;;;;;;5016700;28;20029;-74
2023/01/04 10:54:29;;;;;;;0.60;0.60;;;;;;;;;;5029818;28;20080;-73
2023/01/04 10:57:18;;;;;;;0.82;0.80;;;;;;;;;;5025823;28;20540;-73
2023/01/04 10:59:49;;;;;;;0.40;0.40;;;;;;;;;;5022777;28;20041;-73
2023/01/04 11:02:15;;;;;;;0.52;0.52;;;;;;;;;;5024509;28;20072;-72
2023/01/04 11:04:52;;;;;;;3.03;0.60;;;;;;;;;;5027833;28;20392;-73
2023/01/04 11:07:20;;;;;;;1.08;0.47;;;;;;;;;;5024840;28;20096;-72
2023/01/04 11:09:46;;;;;;;0.50;0.40;;;;;;;;;;5023140;28;20364;-75
2023/01/04 11:12:13;;;;;;;0.90;0.60;;;;;;;;;;5019287;28;20030;-73
2023/01/04 11:14:39;;;;;;;1.48;0.60;;;;;;;;;;5024895;28;20030;-73
2023/01/04 11:17:07;;;;;;;1.10;0.60;;;;;;;;;;5023681;28;20033;-72
2023/01/04 11:19:33;;;;;;;0.63;0.52;;;;;;;;;;5027337;28;20033;-73
2023/01/04 11:22:07;;;;;;;0.70;0.52;;;;;;;;;;5024395;28;20022;-73
2023/01/04 11:24:34;;;;;;;1.55;0.55;;;;;;;;;;5034504;28;20060;-73
2023/01/04 11:27:04;;;;;;;0.43;0.38;;;;;;;;;;5026330;28;20995;-76
2023/01/04 11:29:40;;;;;;;0.95;0.57;;;;;;;;;;5030643;28;20029;-73
2023/01/04 11:32:14;;;;;;;0.73;0.50;;;;;;;;;;5029711;28;20029;-74
2023/01/04 11:35:07;;;;;;;0.68;0.50;;;;;;;;;;5030587;28;20045;-73
2023/01/04 11:37:34;;;;;;;0.40;0.40;;;;;;;;;;5028188;28;20045;-74
2023/01/04 11:40:18;;;;;;;1.48;0.60;;;;;;;;;;5025871;28;20092;-74
2023/01/04 11:43:17;;;;;;;1.30;0.77;;;;;;;;;;5025105;28;20025;-83
2023/01/04 11:45:52;;;;;;;4.43;0.90;;;;;;;;;;5026348;28;20033;-79
2023/01/04 11:48:18;;;;;;;0.65;0.60;;;;;;;;;;5032084;28;20026;-84
2023/01/04 11:50:46;;;;;;;0.77;0.45;;;;;;;;;;5030327;28;20498;-82
2023/01/04 11:53:38;;;;;;;0.77;0.60;;;;;;;;;;5031484;28;20025;-81
2023/01/04 11:56:21;;;;;;;1.35;0.63;;;;;;;;;;5029368;28;20041;-83
2023/01/04 11:59:04;;;;;;;2.05;0.70;;;;;;;;;;5030753;28;20030;-83
2023/01/04 12:01:31;;;;;;;0.50;0.50;;;;;;;;;;5035357;28;20120;-84
2023/01/04 12:03:57;;;;;;;1.80;0.77;;;;;;;;;;5030519;28;20079;-82
2023/01/04 12:06:32;;;;;;;1.33;0.85;;;;;;;;;;5031570;28;20416;-82
2023/01/04 12:08:58;;;;;;;1.45;0.60;;;;;;;;;;5031697;28;20040;-83
2023/01/04 12:11:34;;;;;;;0.90;0.50;;;;;;;;;;5031054;28;20026;-83
2023/01/04 12:14:01;;;;;;;1.63;0.60;;;;;;;;;;5038550;28;20052;-83
2023/01/04 12:16:48;;;;;;;1.23;0.80;;;;;;;;;;5037493;28;20155;-82
2023/01/04 12:19:18;;;;;;;1.15;0.70;;;;;;;;;;5033162;28;20159;-84
2023/01/04 12:21:47;;;;;;;1.23;0.90;;;;;;;;;;5027088;28;20120;-83
2023/01/04 12:24:17;;;;;;;0.98;0.80;;;;;;;;;;5029334;28;20029;-83
2023/01/04 12:26:44;;;;;;;0.55;0.55;;;;;;;;;;5032644;28;20117;-83
2023/01/04 12:29:22;;;;;;;1.30;0.70;;;;;;;;;;5037459;28;20041;-84
2023/01/04 12:31:48;;;;;;;2.40;0.80;;;;;;;;;;5029238;28;20029;-82
2023/01/04 12:34:27;;;;;;;1.58;0.75;;;;;;;;;;5028134;28;20137;-83
2023/01/04 12:36:57;;;;;;;0.60;0.60;;;;;;;;;;5026784;28;20026;-82
2023/01/04 12:39:27;;;;;;;0.90;0.63;;;;;;;;;;5036736;28;20152;-81
2023/01/04 12:41:59;;;;;;;0.50;0.50;;;;;;;;;;5044389;28;20040;-83
2023/01/04 12:44:45;;;;;;;1.08;0.80;;;;;;;;;;5033786;28;20139;-82
2023/01/04 12:50:07;;;;;;;0.73;0.60;;;;;;;;;;5030056;28;20094;-83
2023/01/04 12:52:44;;;;;;;2.50;1.02;;;;;;;;;;5028593;28;20037;-84
2023/01/04 12:55:19;;;;;;;1.05;0.70;;;;;;;;;;5041369;28;20029;-85
2023/01/04 12:57:48;;;;;;;0.80;0.80;;;;;;;;;;5027130;28;20033;-85
2023/01/04 13:00:15;;;;;;;0.60;0.55;;;;;;;;;;5030529;28;20037;-84
2023/01/04 13:02:54;;;;;;;1.55;0.73;;;;;;;;;;5031156;28;20053;-86
2023/01/04 13:05:20;;;;;;;0.98;0.68;;;;;;;;;;5034047;28;20075;-84
2023/01/04 13:07:50;;;;;;;1.80;0.88;;;;;;;;;;5029416;28;20041;-85
2023/01/04 13:10:36;;;;;;;1.63;0.70;;;;;;;;;;5029986;28;20167;-85
2023/01/04 13:13:02;;;;;;;0.93;0.60;;;;;;;;;;5030267;28;20029;-86
2023/01/04 13:15:38;;;;;;;0.70;0.57;;;;;;;;;;5028964;28;20038;-85
2023/01/04 13:18:14;;;;;;;0.60;0.60;;;;;;;;;;5041932;28;20116;-84
2023/01/04 13:20:40;;;;;;;1.10;0.77;;;;;;;;;;5029278;28;20556;-84
2023/01/04 13:23:10;;;;;;;2.05;0.68;;;;;;;;;;5043242;28;20080;-84
2023/01/04 13:25:36;;;;;;;1.63;0.60;;;;;;;;;;5033056;28;20234;-84
2023/01/04 13:28:04;;;;;;;0.85;0.70;;;;;;;;;;5034188;28;20489;-84
2023/01/04 13:30:33;;;;;;;1.80;0.90;;;;;;;;;;5030957;28;20124;-83
2023/01/04 13:32:59;;;;;;;1.33;0.70;;;;;;;;;;5029902;28;20032;-84
2023/01/04 13:35:25;;;;;;;1.88;0.68;;;;;;;;;;5028510;28;20038;-85
2023/01/04 13:37:51;;;;;;;0.60;0.57;;;;;;;;;;5043436;28;20093;-86
2023/01/04 13:40:17;;;;;;;0.60;0.60;;;;;;;;;;5028398;28;20029;-85
2023/01/04 13:42:48;;;;;;;6.78;0.77;;;;;;;;;;5028414;28;20072;-84
2023/01/04 13:45:17;;;;;;;0.73;0.47;;;;;;;;;;5029691;28;20539;-84
2023/01/04 13:47:43;;;;;;;1.35;0.70;;;;;;;;;;5039545;28;20095;-84
2023/01/04 13:50:23;;;;;;;0.75;0.50;;;;;;;;;;5026855;28;20508;-86
2023/01/04 13:52:49;;;;;;;0.68;0.57;;;;;;;;;;5025079;28;20018;-85
2023/01/04 13:58:49;;;;;;;0.50;0.50;;;;;;;;;;4987721;28;20053;-83
2023/01/04 14:01:26;;;;;;;0.77;0.57;;;;;;;;;;5006766;28;20030;-84
2023/01/04 14:03:56;;;;;;;2.47;0.77;;;;;;;;;;5027383;28;20037;-84
2023/01/04 14:06:33;;;;;;;1.13;0.87;;;;;;;;;;5029644;28;20080;-83
2023/01/04 14:09:05;;;;;;;0.77;0.57;;;;;;;;;;5028328;28;20313;-84
2023/01/04 14:14:28;;;;;;;0.40;0.40;;;;;;;;;;5029223;28;20095;-84
2023/01/04 14:17:10;;;;;;;0.43;0.40;;;;;;;;;;5027872;28;20060;-84
2023/01/04 14:19:36;;;;;;;1.92;0.50;;;;;;;;;;5029076;28;20040;-84
2023/01/04 14:22:01;;;;;;;0.63;0.50;;;;;;;;;;5028884;28;20033;-84
2023/01/04 14:24:31;;;;;;;0.60;0.60;;;;;;;;;;5035015;28;20036;-84
2023/01/04 14:26:57;;;;;;;1.27;0.75;;;;;;;;;;5029149;28;20025;-85
2023/01/04 14:29:30;;;;;;;0.40;0.40;;;;;;;;;;5027435;28;20037;-85
2023/01/04 14:31:56;;;;;;;0.47;0.47;;;;;;;;;;5028724;28;20036;-85
2023/01/04 14:34:22;;;;;;;1.00;0.50;;;;;;;;;;5028011;28;20161;-84
2023/01/04 14:36:48;;;;;;;0.50;0.50;;;;;;;;;;5039493;28;20116;-85
2023/01/04 14:39:19;;;;;;;0.52;0.52;;;;;;;;;;5028539;28;20108;-84
2023/01/04 14:41:48;;;;;;;0.35;0.35;;;;;;;;;;5028708;28;20025;-83
2023/01/04 14:44:14;;;;;;;0.30;0.30;;;;;;;;;;5029249;28;20764;-84
2023/01/04 14:46:42;;;;;;;2.00;0.70;;;;;;;;;;5024150;28;20021;-77
2023/01/04 14:49:08;;;;;;;0.60;0.60;;;;;;;;;;5030591;28;20029;-75
2023/01/04 14:51:48;;;;;;;0.73;0.35;;;;;;;;;;5025303;28;20060;-75
2023/01/04 14:54:14;;;;;;;1.17;0.60;;;;;;;;;;5021813;28;20033;-75
2023/01/04 14:56:40;;;;;;;0.55;0.47;;;;;;;;;;5026913;28;20060;-75
2023/01/04 14:59:07;;;;;;;0.50;0.50;;;;;;;;;;5031937;28;20021;-74
2023/01/04 15:01:33;;;;;;;1.50;0.68;;;;;;;;;;5028633;28;20064;-75
2023/01/04 15:03:59;;;;;;;0.55;0.50;;;;;;;;;;5033669;28;20025;-75
2023/01/04 15:06:25;;;;;;;0.40;0.35;;;;;;;;;;5030378;28;20120;-75
2023/01/04 15:08:51;;;;;;;0.68;0.50;;;;;;;;;;5029482;28;20464;-75
2023/01/04 15:11:18;;;;;;;0.98;0.52;;;;;;;;;;5029981;28;20038;-75
2023/01/04 15:13:44;;;;;;;0.70;0.50;;;;;;;;;;5029158;28;20535;-76
2023/01/04 15:16:12;;;;;;;0.47;0.45;;;;;;;;;;5030994;28;20014;-75
2023/01/04 15:18:38;;;;;;;0.30;0.30;;;;;;;;;;5029102;28;20053;-76
2023/01/04 15:21:04;;;;;;;0.63;0.63;;;;;;;;;;5033109;28;20017;-76
2023/01/04 15:23:30;;;;;;;0.60;0.60;;;;;;;;;;5031758;28;20502;-76
2023/01/04 15:25:56;;;;;;;0.70;0.50;;;;;;;;;;5031373;28;20030;-76
2023/01/04 15:28:24;;;;;;;0.50;0.50;;;;;;;;;;5030234;28;20056;-76
2023/01/04 15:30:50;;;;;;;2.05;0.60;;;;;;;;;;5032878;28;20098;-75
2023/01/04 15:33:16;;;;;;;0.65;0.40;;;;;;;;;;5032175;28;20464;-76
2023/01/04 15:35:42;;;;;;;0.47;0.47;;;;;;;;;;5031490;28;20104;-75
2023/01/04 15:38:08;;;;;;;0.60;0.50;;;;;;;;;;5031505;28;20026;-76
2023/01/04 15:40:34;;;;;;;0.98;0.40;;;;;;;;;;5027586;28;20462;-75
2023/01/04 15:43:01;;;;;;;0.60;0.60;;;;;;;;;;5029700;28;20178;-75
2023/01/04 15:45:30;;;;;;;0.95;0.40;;;;;;;;;;5028891;28;20034;-76
2023/01/04 15:48:01;;;;;;;0.75;0.50;;;;;;;;;;5030817;28;20021;-75